createdAt,value
2017-09-21T00:00:44.470Z,11.40
2017-09-21T00:03:13.410Z,11.40
2017-09-21T00:05:41.698Z,11.40
2017-09-21T00:08:09.835Z,11.40
2017-09-21T00:10:38.031Z,11.40
2017-09-21T00:13:06.178Z,11.30
2017-09-21T00:15:34.329Z,11.30
2017-09-21T00:18:03.262Z,11.30
2017-09-21T00:20:31.398Z,11.30
2017-09-21T00:22:59.549Z,11.30
2017-09-21T00:25:27.847Z,11.20
2017-09-21T00:27:56.764Z,11.10
2017-09-21T00:30:24.930Z,11.10
2017-09-21T00:32:53.068Z,11.10
2017-09-21T00:35:22.012Z,11.10
2017-09-21T00:37:50.185Z,11.10
2017-09-21T00:40:18.323Z,11.10
2017-09-21T00:42:47.384Z,11.10
2017-09-21T00:45:15.554Z,11.10
2017-09-21T00:47:43.696Z,11.10
2017-09-21T00:50:11.990Z,11.00
2017-09-21T00:52:40.130Z,11.00
2017-09-21T00:55:08.294Z,11.00
2017-09-21T00:57:36.441Z,10.90
2017-09-21T01:00:04.621Z,10.90
2017-09-21T01:02:32.762Z,10.90
2017-09-21T01:05:01.054Z,10.80
2017-09-21T01:07:29.232Z,10.80
2017-09-21T01:09:57.398Z,10.90
2017-09-21T01:12:25.560Z,10.80
2017-09-21T01:14:53.704Z,10.80
2017-09-21T01:17:21.849Z,10.80
2017-09-21T01:19:50.889Z,10.70
2017-09-21T01:22:19.060Z,10.70
2017-09-21T01:24:47.196Z,10.70
2017-09-21T01:27:15.341Z,10.70
2017-09-21T01:29:43.512Z,10.70
2017-09-21T01:32:11.657Z,10.60
2017-09-21T01:34:39.784Z,10.70
2017-09-21T01:37:08.821Z,10.60
2017-09-21T01:39:37.018Z,10.60
2017-09-21T01:42:05.174Z,10.50
2017-09-21T01:44:33.467Z,10.50
2017-09-21T01:47:01.608Z,10.50
2017-09-21T01:49:29.783Z,10.60
2017-09-21T01:51:57.925Z,10.60
2017-09-21T01:54:26.210Z,10.50
2017-09-21T01:56:54.349Z,10.50
2017-09-21T01:59:22.533Z,10.40
2017-09-21T02:01:51.447Z,10.40
2017-09-21T02:04:19.622Z,10.30
2017-09-21T02:06:47.760Z,10.30
2017-09-21T02:09:16.048Z,10.30
2017-09-21T02:11:44.984Z,10.30
2017-09-21T02:14:13.134Z,10.20
2017-09-21T02:16:41.296Z,10.30
2017-09-21T02:19:10.205Z,10.20
2017-09-21T02:21:38.408Z,10.20
2017-09-21T02:24:06.528Z,10.10
2017-09-21T02:26:35.457Z,10.10
2017-09-21T02:29:03.736Z,10.00
2017-09-21T02:31:31.873Z,10.00
2017-09-21T02:34:00.810Z,10.00
2017-09-21T02:36:28.945Z,10.00
2017-09-21T02:38:57.116Z,10.10
2017-09-21T02:41:25.265Z,10.00
2017-09-21T02:43:53.414Z,9.90
2017-09-21T02:46:21.609Z,9.90
2017-09-21T02:48:49.745Z,9.90
2017-09-21T02:51:17.925Z,9.90
2017-09-21T02:53:46.065Z,10.00
2017-09-21T02:56:14.204Z,9.90
2017-09-21T02:58:42.364Z,9.90
2017-09-21T03:01:10.523Z,9.80
2017-09-21T03:03:38.809Z,9.80
2017-09-21T03:06:06.958Z,9.80
2017-09-21T03:08:35.103Z,9.80
2017-09-21T03:11:04.028Z,9.80
2017-09-21T03:13:32.204Z,9.80
2017-09-21T03:16:00.389Z,9.80
2017-09-21T03:18:28.517Z,9.80
2017-09-21T03:20:56.660Z,9.80
2017-09-21T03:23:24.858Z,9.80
2017-09-21T03:25:53.023Z,9.70
2017-09-21T03:28:21.949Z,9.80
2017-09-21T03:30:50.093Z,9.80
2017-09-21T03:33:19.020Z,9.80
2017-09-21T03:35:47.161Z,9.80
2017-09-21T03:38:15.331Z,9.80
2017-09-21T03:40:44.365Z,9.70
2017-09-21T03:43:12.517Z,9.70
2017-09-21T03:45:41.917Z,9.70
2017-09-21T03:48:10.053Z,9.70
2017-09-21T03:50:38.241Z,9.70
2017-09-21T03:53:07.157Z,9.70
2017-09-21T03:55:35.289Z,9.70
2017-09-21T03:58:03.587Z,9.70
2017-09-21T04:00:32.487Z,9.80
2017-09-21T04:03:00.662Z,9.70
2017-09-21T04:05:28.808Z,9.80
2017-09-21T04:07:56.955Z,9.90
2017-09-21T04:10:25.122Z,9.90
2017-09-21T04:12:53.397Z,9.90
2017-09-21T04:15:21.549Z,10.00
2017-09-21T04:17:49.724Z,10.00
2017-09-21T04:20:17.864Z,10.00
2017-09-21T04:22:46.836Z,10.00
2017-09-21T04:25:15.023Z,10.00
2017-09-21T04:27:43.957Z,10.10
2017-09-21T04:30:12.133Z,10.00
2017-09-21T04:32:40.402Z,10.00
2017-09-21T04:35:08.576Z,10.00
2017-09-21T04:37:36.769Z,10.00
2017-09-21T04:40:04.945Z,10.00
2017-09-21T04:42:33.125Z,10.00
2017-09-21T04:45:02.241Z,10.10
2017-09-21T04:47:31.444Z,10.00
2017-09-21T04:49:59.609Z,10.00
2017-09-21T04:52:28.939Z,10.00
2017-09-21T04:54:57.984Z,9.90
2017-09-21T04:57:26.130Z,9.90
2017-09-21T04:59:54.313Z,9.90
2017-09-21T05:02:22.452Z,9.90
2017-09-21T05:04:51.500Z,9.90
2017-09-21T05:07:19.678Z,9.80
2017-09-21T05:09:47.818Z,9.80
2017-09-21T05:12:16.021Z,9.80
2017-09-21T05:14:44.761Z,9.80
2017-09-21T05:17:12.940Z,9.80
2017-09-21T05:19:41.077Z,9.70
2017-09-21T05:22:09.249Z,9.70
2017-09-21T05:24:37.408Z,9.70
2017-09-21T05:27:05.550Z,9.70
2017-09-21T05:29:33.841Z,9.70
2017-09-21T05:32:01.989Z,9.70
2017-09-21T05:34:31.376Z,9.60
2017-09-21T05:36:59.521Z,9.60
2017-09-21T05:39:27.668Z,9.60
2017-09-21T05:41:55.970Z,9.60
2017-09-21T05:44:24.118Z,9.70
2017-09-21T05:46:52.318Z,9.70
2017-09-21T05:49:20.465Z,9.70
2017-09-21T05:51:48.641Z,9.70
2017-09-21T05:54:16.822Z,9.70
2017-09-21T05:56:45.096Z,9.70
2017-09-21T05:59:14.634Z,9.80
2017-09-21T06:07:00.160Z,10.20
2017-09-21T06:09:28.330Z,10.10
2017-09-21T06:11:57.260Z,10.20
2017-09-21T06:14:25.452Z,10.10
2017-09-21T06:16:54.092Z,10.20
2017-09-21T06:19:22.264Z,10.00
2017-09-21T06:21:50.477Z,10.00
2017-09-21T06:24:18.765Z,10.00
2017-09-21T06:26:46.947Z,10.00
2017-09-21T06:29:15.099Z,9.90
2017-09-21T06:31:43.278Z,9.90
2017-09-21T06:34:11.443Z,9.90
2017-09-21T06:36:39.577Z,10.00
2017-09-21T06:39:07.767Z,10.00
2017-09-21T06:41:35.904Z,10.00
2017-09-21T06:44:05.739Z,10.20
2017-09-21T06:46:34.645Z,10.20
2017-09-21T06:49:02.809Z,10.20
2017-09-21T06:51:31.626Z,10.20
2017-09-21T06:53:59.782Z,10.20
2017-09-21T06:56:27.945Z,10.20
2017-09-21T06:58:56.096Z,10.20
2017-09-21T07:01:24.293Z,10.30
2017-09-21T07:03:52.451Z,10.40
2017-09-21T07:06:21.374Z,10.60
2017-09-21T07:08:49.523Z,10.60
2017-09-21T07:11:17.725Z,10.50
2017-09-21T07:13:45.861Z,10.50
2017-09-21T07:16:14.001Z,10.60
2017-09-21T07:18:42.289Z,10.60
2017-09-21T07:21:10.462Z,10.70
2017-09-21T07:23:38.635Z,10.70
2017-09-21T07:26:06.768Z,10.60
2017-09-21T07:28:34.949Z,10.70
2017-09-21T07:31:03.098Z,10.80
2017-09-21T07:33:31.248Z,10.90
2017-09-21T07:35:59.541Z,10.90
2017-09-21T07:38:28.439Z,11.10
2017-09-21T07:40:56.653Z,11.10
2017-09-21T07:43:24.800Z,11.10
2017-09-21T07:45:52.964Z,11.20
2017-09-21T07:48:21.144Z,11.30
2017-09-21T07:50:49.291Z,11.40
2017-09-21T07:53:18.228Z,11.50
2017-09-21T07:55:46.368Z,11.50
2017-09-21T07:58:14.657Z,11.50
2017-09-21T08:00:42.801Z,11.50
2017-09-21T08:03:11.713Z,11.80
2017-09-21T08:05:39.893Z,11.70
2017-09-21T08:08:08.030Z,11.80
2017-09-21T08:10:36.965Z,11.80
2017-09-21T08:13:05.136Z,11.80
2017-09-21T08:15:34.063Z,12.10
2017-09-21T08:18:02.200Z,12.00
2017-09-21T08:20:30.485Z,12.10
2017-09-21T08:22:58.638Z,12.30
2017-09-21T08:25:26.879Z,12.30
2017-09-21T08:27:56.752Z,12.40
2017-09-21T08:30:27.545Z,12.60
2017-09-21T08:32:57.563Z,12.60
2017-09-21T08:35:28.282Z,12.60
2017-09-21T08:38:00.692Z,12.90
2017-09-21T08:40:32.545Z,12.80
2017-09-21T08:43:04.832Z,13.10
2017-09-21T08:45:35.111Z,13.00
2017-09-21T08:48:06.745Z,13.20
2017-09-21T08:50:37.790Z,13.30
2017-09-21T08:53:09.135Z,13.40
2017-09-21T08:55:40.196Z,13.60
2017-09-21T08:58:10.807Z,14.20
2017-09-21T09:00:41.037Z,14.20
2017-09-21T09:03:13.789Z,15.20
2017-09-21T09:05:42.971Z,15.20
2017-09-21T09:08:11.196Z,15.90
2017-09-21T09:10:39.345Z,16.50
2017-09-21T09:13:07.627Z,17.00
2017-09-21T09:15:35.812Z,17.40
2017-09-21T09:18:05.201Z,17.50
2017-09-21T09:20:33.340Z,17.70
2017-09-21T09:23:01.512Z,17.80
2017-09-21T09:25:30.572Z,17.80
2017-09-21T09:27:59.481Z,17.70
2017-09-21T09:30:27.628Z,17.70
2017-09-21T09:32:55.918Z,17.60
2017-09-21T09:35:24.830Z,17.20
2017-09-21T09:37:53.024Z,17.20
2017-09-21T09:40:21.161Z,17.20
2017-09-21T09:42:49.344Z,17.10
2017-09-21T09:45:17.512Z,17.20
2017-09-21T09:47:45.809Z,17.30
2017-09-21T09:50:13.952Z,17.20
2017-09-21T09:52:42.112Z,17.30
2017-09-21T09:55:10.326Z,17.30
2017-09-21T09:57:38.489Z,17.10
2017-09-21T10:00:07.392Z,17.00
2017-09-21T10:02:35.572Z,17.00
2017-09-21T10:05:03.713Z,17.00
2017-09-21T10:07:32.781Z,17.00
2017-09-21T10:10:00.933Z,16.90
2017-09-21T10:12:29.108Z,17.00
2017-09-21T10:14:57.334Z,16.90
2017-09-21T10:17:26.245Z,16.80
2017-09-21T10:19:54.460Z,16.80
2017-09-21T10:22:22.621Z,16.80
2017-09-21T10:24:50.807Z,16.80
2017-09-21T10:27:20.261Z,16.90
2017-09-21T10:29:48.414Z,17.00
2017-09-21T10:32:16.548Z,17.00
2017-09-21T10:34:49.794Z,17.10
2017-09-21T10:37:17.941Z,17.40
2017-09-21T10:39:46.093Z,17.50
2017-09-21T10:42:14.264Z,17.60
2017-09-21T10:44:42.421Z,17.70
2017-09-21T10:47:10.600Z,17.80
2017-09-21T10:49:38.752Z,17.90
2017-09-21T10:52:07.029Z,18.10
2017-09-21T10:54:35.168Z,18.30
2017-09-21T10:57:04.096Z,18.50
2017-09-21T10:59:32.261Z,18.50
2017-09-21T11:02:00.441Z,18.70
2017-09-21T11:04:28.620Z,18.80
2017-09-21T11:06:56.775Z,18.90
2017-09-21T11:09:24.981Z,19.00
2017-09-21T11:11:53.132Z,19.10
2017-09-21T11:14:21.286Z,19.10
2017-09-21T11:16:50.248Z,19.30
2017-09-21T11:19:19.125Z,19.30
2017-09-21T11:21:47.321Z,19.40
2017-09-21T11:24:15.605Z,19.50
2017-09-21T11:26:44.512Z,19.60
2017-09-21T11:29:12.661Z,19.60
2017-09-21T11:31:40.832Z,19.80
2017-09-21T11:34:08.988Z,19.70
2017-09-21T11:36:37.190Z,19.80
2017-09-21T11:39:06.876Z,20.00
2017-09-21T11:41:35.390Z,20.00
2017-09-21T11:44:04.327Z,20.30
2017-09-21T11:46:32.511Z,20.20
2017-09-21T11:49:00.719Z,20.20
2017-09-21T11:51:28.948Z,20.40
2017-09-21T11:53:57.124Z,20.50
2017-09-21T11:56:25.270Z,20.60
2017-09-21T11:58:53.553Z,20.40
2017-09-21T12:01:23.197Z,20.50
2017-09-21T12:03:51.343Z,20.60
2017-09-21T12:06:19.556Z,20.80
2017-09-21T12:08:47.692Z,20.80
2017-09-21T12:11:15.846Z,20.90
2017-09-21T12:13:44.015Z,20.80
2017-09-21T12:16:12.152Z,20.90
2017-09-21T12:18:40.332Z,21.00
2017-09-21T12:21:08.476Z,21.20
2017-09-21T12:23:36.688Z,21.30
2017-09-21T12:26:05.586Z,21.00
2017-09-21T12:28:34.496Z,21.00
2017-09-21T12:31:02.661Z,21.00
2017-09-21T12:33:31.720Z,21.10
2017-09-21T12:36:01.265Z,21.20
2017-09-21T12:38:30.311Z,21.40
2017-09-21T12:40:59.633Z,21.50
2017-09-21T12:43:29.016Z,21.60
2017-09-21T12:45:57.238Z,21.60
2017-09-21T12:48:25.406Z,21.60
2017-09-21T12:50:54.321Z,21.80
2017-09-21T12:53:22.536Z,21.80
2017-09-21T12:55:51.171Z,21.70
2017-09-21T12:58:19.383Z,21.70
2017-09-21T13:00:47.536Z,21.80
2017-09-21T13:03:15.735Z,22.00
2017-09-21T13:05:43.927Z,22.10
2017-09-21T13:08:12.058Z,22.30
2017-09-21T13:10:40.341Z,22.30
2017-09-21T13:13:08.906Z,22.20
2017-09-21T13:15:38.172Z,22.30
2017-09-21T13:18:07.439Z,22.20
2017-09-21T13:20:35.734Z,22.30
2017-09-21T13:23:04.872Z,22.50
2017-09-21T13:28:07.420Z,22.50
2017-09-21T13:30:35.597Z,22.50
2017-09-21T13:33:04.698Z,22.50
2017-09-21T13:35:34.416Z,22.70
2017-09-21T13:38:02.592Z,22.60
2017-09-21T13:40:31.749Z,22.60
2017-09-21T13:42:59.933Z,22.60
2017-09-21T13:45:28.966Z,22.60
2017-09-21T13:47:57.341Z,22.50
2017-09-21T13:50:26.312Z,22.10
2017-09-21T13:52:57.245Z,21.90
2017-09-21T13:55:26.213Z,21.90
2017-09-21T13:57:56.602Z,21.80
2017-09-21T14:00:27.133Z,21.80
2017-09-21T14:02:58.069Z,21.90
2017-09-21T14:05:30.039Z,21.80
2017-09-21T14:08:00.378Z,21.80
2017-09-21T14:10:30.096Z,21.80
2017-09-21T14:13:00.580Z,21.70
2017-09-21T14:15:32.284Z,21.60
2017-09-21T14:18:01.357Z,21.60
2017-09-21T14:20:31.797Z,21.60
2017-09-21T14:23:02.824Z,21.70
2017-09-21T14:25:34.384Z,21.70
2017-09-21T14:28:05.213Z,21.70
2017-09-21T14:30:34.344Z,21.80
2017-09-21T14:33:04.840Z,21.90
2017-09-21T14:35:35.358Z,21.90
2017-09-21T14:38:06.196Z,22.00
2017-09-21T14:40:36.909Z,21.80
2017-09-21T14:43:07.596Z,21.80
2017-09-21T14:45:36.460Z,21.90
2017-09-21T14:48:05.386Z,21.90
2017-09-21T14:53:04.275Z,21.90
2017-09-21T14:55:33.582Z,21.90
2017-09-21T14:58:03.042Z,21.90
2017-09-21T15:00:32.466Z,21.90
2017-09-21T15:03:01.847Z,21.90
2017-09-21T15:05:32.039Z,21.90
2017-09-21T15:08:02.605Z,21.80
2017-09-21T15:10:33.584Z,21.70
2017-09-21T15:13:03.513Z,21.70
2017-09-21T15:15:35.197Z,21.60
2017-09-21T15:18:04.803Z,21.60
2017-09-21T15:20:35.449Z,21.60
2017-09-21T15:23:06.514Z,21.60
2017-09-21T15:25:37.581Z,21.50
2017-09-21T15:28:09.057Z,21.50
2017-09-21T15:30:39.526Z,21.40
2017-09-21T15:33:10.059Z,21.30
2017-09-21T15:35:39.970Z,21.30
2017-09-21T15:38:11.060Z,21.10
2017-09-21T15:40:42.161Z,21.00
2017-09-21T15:43:10.680Z,21.00
2017-09-21T15:45:39.993Z,21.00
2017-09-21T15:48:08.192Z,21.00
2017-09-21T15:50:39.050Z,20.80
2017-09-21T15:53:08.622Z,20.60
2017-09-21T15:55:39.596Z,20.50
2017-09-21T15:58:09.305Z,20.50
2017-09-21T16:00:38.147Z,20.40
2017-09-21T16:03:08.953Z,20.20
2017-09-21T16:05:41.013Z,20.20
2017-09-21T16:08:12.314Z,20.00
2017-09-21T16:10:43.334Z,19.80
2017-09-21T16:13:16.421Z,19.80
2017-09-21T16:15:47.943Z,19.90
2017-09-21T16:18:18.956Z,19.80
2017-09-21T16:20:50.126Z,19.80
2017-09-21T16:23:21.525Z,19.70
2017-09-21T16:25:54.288Z,19.60
2017-09-21T16:28:24.938Z,19.60
2017-09-21T16:31:01.526Z,19.40
2017-09-21T16:33:38.817Z,19.40
2017-09-21T16:36:10.101Z,19.30
2017-09-21T16:38:41.461Z,19.30
2017-09-21T16:41:12.472Z,19.30
2017-09-21T16:43:44.721Z,19.30
2017-09-21T16:46:18.749Z,19.30
2017-09-21T16:48:47.921Z,19.20
2017-09-21T16:51:20.723Z,19.20
2017-09-21T16:53:51.799Z,19.10
2017-09-21T16:56:26.004Z,19.10
2017-09-21T16:58:57.064Z,19.10
2017-09-21T17:01:29.634Z,19.10
2017-09-21T17:04:01.495Z,19.00
2017-09-21T17:06:32.137Z,18.90
2017-09-21T17:09:01.901Z,18.90
2017-09-21T17:11:34.173Z,18.80
2017-09-21T17:14:06.245Z,18.80
2017-09-21T17:16:37.181Z,18.80
2017-09-21T17:19:09.932Z,18.70
2017-09-21T17:21:42.638Z,18.60
2017-09-21T17:24:14.979Z,18.60
2017-09-21T17:26:46.172Z,18.60
2017-09-21T17:29:18.220Z,18.50
2017-09-21T17:31:51.569Z,18.30
2017-09-21T17:34:23.197Z,18.30
2017-09-21T17:36:54.054Z,18.20
2017-09-21T17:39:27.467Z,18.00
2017-09-21T17:42:00.290Z,18.00
2017-09-21T17:44:32.012Z,17.90
2017-09-21T17:47:04.175Z,17.80
2017-09-21T17:49:36.077Z,17.70
2017-09-21T17:52:07.774Z,17.60
2017-09-21T17:54:41.149Z,17.50
2017-09-21T17:57:14.921Z,17.40
2017-09-21T17:59:46.669Z,17.40
2017-09-21T18:02:18.060Z,17.30
2017-09-21T18:04:51.261Z,17.20
2017-09-21T18:07:22.988Z,17.20
2017-09-21T18:09:55.766Z,17.00
2017-09-21T18:12:27.081Z,17.00
2017-09-21T18:14:58.573Z,17.00
2017-09-21T18:17:31.891Z,16.80
2017-09-21T18:20:03.004Z,16.80
2017-09-21T18:22:35.133Z,16.80
2017-09-21T18:30:29.922Z,16.50
2017-09-21T18:33:03.250Z,16.50
2017-09-21T18:35:35.935Z,16.40
2017-09-21T18:38:06.227Z,16.40
2017-09-21T18:40:39.266Z,16.30
2017-09-21T18:43:11.770Z,16.20
2017-09-21T18:45:43.155Z,16.20
2017-09-21T18:48:17.414Z,16.10
2017-09-21T18:50:48.057Z,16.10
2017-09-21T18:53:21.970Z,16.00
2017-09-21T18:55:55.191Z,16.00
2017-09-21T18:58:28.498Z,15.90
2017-09-21T19:01:00.435Z,15.90
2017-09-21T19:03:32.365Z,15.90
2017-09-21T19:06:03.237Z,15.80
2017-09-21T19:08:35.664Z,15.80
2017-09-21T19:11:07.138Z,15.80
2017-09-21T19:13:39.062Z,15.70
2017-09-21T19:16:11.642Z,15.70
2017-09-21T19:18:43.099Z,15.60
2017-09-21T19:21:15.704Z,15.60
2017-09-21T19:23:47.156Z,15.50
2017-09-21T19:26:18.548Z,15.50
2017-09-21T19:28:52.041Z,15.50
2017-09-21T19:31:24.097Z,15.40
2017-09-21T19:33:56.157Z,15.40
2017-09-21T19:36:27.768Z,15.40
2017-09-21T19:39:01.815Z,15.30
2017-09-21T19:41:33.117Z,15.30
2017-09-21T19:44:05.001Z,15.30
2017-09-21T19:46:36.973Z,15.20
2017-09-21T19:49:08.973Z,15.20
2017-09-21T19:51:39.988Z,15.20
2017-09-21T19:54:10.629Z,15.10
2017-09-21T19:59:25.319Z,15.10
2017-09-21T20:01:57.544Z,15.00
2017-09-21T20:04:29.048Z,15.00
2017-09-21T20:07:00.421Z,15.00
2017-09-21T20:09:31.385Z,14.90
2017-09-21T20:12:00.905Z,14.90
2017-09-21T20:14:32.151Z,14.90
2017-09-21T20:17:04.213Z,14.90
2017-09-21T20:19:35.353Z,14.80
2017-09-21T20:22:06.676Z,14.80
2017-09-21T20:27:14.209Z,14.70
2017-09-21T20:29:45.214Z,14.70
2017-09-21T20:32:18.347Z,14.60
2017-09-21T20:34:49.566Z,14.60
2017-09-21T20:37:20.722Z,14.60
2017-09-21T20:39:52.130Z,14.50
2017-09-21T20:42:21.972Z,14.60
2017-09-21T20:44:54.612Z,14.50
2017-09-21T20:47:24.166Z,14.50
2017-09-21T20:49:54.318Z,14.50
2017-09-21T20:52:26.390Z,14.40
2017-09-21T20:54:57.753Z,14.40
2017-09-21T20:57:28.925Z,14.30
2017-09-21T21:00:00.129Z,14.30
2017-09-21T21:02:32.269Z,14.30
2017-09-21T21:05:04.558Z,14.30
2017-09-21T21:07:35.926Z,14.30
2017-09-21T21:10:07.638Z,14.30
2017-09-21T21:12:39.312Z,14.30
2017-09-21T21:15:10.278Z,14.20
2017-09-21T21:17:40.593Z,14.20
2017-09-21T21:20:10.985Z,14.20
2017-09-21T21:22:41.199Z,14.20
2017-09-21T21:25:13.731Z,14.20
2017-09-21T21:27:45.563Z,14.20
2017-09-21T21:30:18.109Z,14.20
2017-09-21T21:32:49.975Z,14.10
2017-09-21T21:35:20.522Z,14.10
2017-09-21T21:37:50.729Z,14.10
2017-09-21T21:40:21.083Z,14.10
2017-09-21T21:42:52.625Z,14.10
2017-09-21T21:45:24.472Z,14.10
2017-09-21T21:47:55.668Z,14.10
2017-09-21T21:50:27.458Z,14.10
2017-09-21T21:52:58.277Z,14.00
2017-09-21T21:55:29.639Z,14.00
2017-09-21T21:58:00.111Z,14.00
2017-09-21T22:00:32.492Z,14.00
2017-09-21T22:03:04.442Z,14.00
2017-09-21T22:05:35.835Z,13.90
2017-09-21T22:08:06.792Z,14.00
2017-09-21T22:10:38.349Z,13.90
2017-09-21T22:13:09.265Z,13.80
2017-09-21T22:15:40.262Z,13.80
2017-09-21T22:18:11.552Z,13.80
2017-09-21T22:20:43.892Z,13.80
2017-09-21T22:23:14.986Z,13.70
2017-09-21T22:25:45.780Z,13.70
2017-09-21T22:28:15.557Z,13.80
2017-09-21T22:30:45.358Z,13.70
2017-09-21T22:33:17.337Z,13.60
2017-09-21T22:35:48.829Z,13.60
2017-09-21T22:38:20.577Z,13.60
2017-09-21T22:40:52.088Z,13.60
2017-09-21T22:43:22.458Z,13.60
2017-09-21T22:45:53.685Z,13.60
2017-09-21T22:48:25.005Z,13.50
2017-09-21T22:50:57.643Z,13.40
2017-09-21T22:53:28.404Z,13.40
2017-09-21T22:56:00.262Z,13.50
2017-09-21T22:58:31.369Z,13.40
2017-09-21T23:01:02.489Z,13.40
2017-09-21T23:03:35.900Z,13.30
2017-09-21T23:06:07.096Z,13.30
2017-09-21T23:08:38.166Z,13.30
2017-09-21T23:11:08.132Z,13.30
2017-09-21T23:13:39.911Z,13.30
2017-09-21T23:16:10.792Z,13.30
2017-09-21T23:18:42.042Z,13.30
2017-09-21T23:21:14.677Z,13.30
2017-09-21T23:23:45.878Z,13.20
2017-09-21T23:26:18.143Z,13.20
2017-09-21T23:28:48.913Z,13.10
2017-09-21T23:31:20.677Z,13.10
2017-09-21T23:33:51.745Z,13.10
2017-09-21T23:36:23.890Z,13.00
2017-09-21T23:38:54.421Z,13.00
2017-09-21T23:41:26.197Z,13.10
2017-09-21T23:43:56.717Z,13.10
2017-09-21T23:46:28.518Z,13.00
2017-09-21T23:49:00.463Z,13.00
2017-09-21T23:51:30.052Z,13.00
2017-09-21T23:54:02.436Z,12.90
2017-09-21T23:56:35.257Z,12.90
2017-09-21T23:59:05.973Z,12.90
